sensor_id;sensor_type;location;lat;lon;timestamp;temperature;humidity
66568;DHT22;53422;49.296;6.900;2023-04-25T00:02:14;9.90;99.90
66568;DHT22;53422;49.296;6.900;2023-04-25T00:04:40;9.90;99.90
66568;DHT22;53422;49.296;6.900;2023-04-25T00:07:05;9.90;99.90
66568;DHT22;53422;49.296;6.900;2023-04-25T00:09:32;9.90;99.90
66568;DHT22;53422;49.296;6.900;2023-04-25T00:11:57;9.90;99.90
66568;DHT22;53422;49.296;6.900;2023-04-25T00:14:23;9.90;99.90
66568;DHT22;53422;49.296;6.900;2023-04-25T00:16:48;9.80;99.90
66568;DHT22;53422;49.296;6.900;2023-04-25T00:19:17;9.80;99.90
66568;DHT22;53422;49.296;6.900;2023-04-25T00:21:42;9.80;99.90
66568;DHT22;53422;49.296;6.900;2023-04-25T00:24:12;9.90;99.90
66568;DHT22;53422;49.296;6.900;2023-04-25T00:26:37;9.80;99.90
66568;DHT22;53422;49.296;6.900;2023-04-25T00:29:03;9.80;99.90
66568;DHT22;53422;49.296;6.900;2023-04-25T00:31:29;9.80;99.90
66568;DHT22;53422;49.296;6.900;2023-04-25T00:33:55;9.80;99.90
66568;DHT22;53422;49.296;6.900;2023-04-25T00:36:20;9.80;99.90
66568;DHT22;53422;49.296;6.900;2023-04-25T00:38:46;9.70;99.90
66568;DHT22;53422;49.296;6.900;2023-04-25T00:41:12;9.70;99.90
66568;DHT22;53422;49.296;6.900;2023-04-25T00:43:38;9.70;99.90
66568;DHT22;53422;49.296;6.900;2023-04-25T00:46:05;9.70;99.90
66568;DHT22;53422;49.296;6.900;2023-04-25T00:48:30;9.70;99.90
66568;DHT22;53422;49.296;6.900;2023-04-25T00:50:58;9.70;99.90
66568;DHT22;53422;49.296;6.900;2023-04-25T00:53:26;9.70;99.90
66568;DHT22;53422;49.296;6.900;2023-04-25T00:55:53;9.60;99.90
66568;DHT22;53422;49.296;6.900;2023-04-25T00:58:20;9.70;99.90
66568;DHT22;53422;49.296;6.900;2023-04-25T01:00:47;9.60;99.90
66568;DHT22;53422;49.296;6.900;2023-04-25T01:03:16;9.60;99.90
66568;DHT22;53422;49.296;6.900;2023-04-25T01:05:45;9.60;99.90
66568;DHT22;53422;49.296;6.900;2023-04-25T01:08:12;9.60;99.90
66568;DHT22;53422;49.296;6.900;2023-04-25T01:10:38;9.60;99.90
66568;DHT22;53422;49.296;6.900;2023-04-25T01:13:04;9.60;99.90
66568;DHT22;53422;49.296;6.900;2023-04-25T01:15:30;9.60;99.90
66568;DHT22;53422;49.296;6.900;2023-04-25T01:17:57;9.60;99.90
66568;DHT22;53422;49.296;6.900;2023-04-25T01:20:24;9.60;99.90
66568;DHT22;53422;49.296;6.900;2023-04-25T01:22:53;9.50;99.90
66568;DHT22;53422;49.296;6.900;2023-04-25T01:25:21;9.50;99.90
66568;DHT22;53422;49.296;6.900;2023-04-25T01:27:47;9.50;99.90
66568;DHT22;53422;49.296;6.900;2023-04-25T01:30:13;9.50;99.90
66568;DHT22;53422;49.296;6.900;2023-04-25T01:32:40;9.50;99.90
66568;DHT22;53422;49.296;6.900;2023-04-25T01:35:08;9.50;99.90
66568;DHT22;53422;49.296;6.900;2023-04-25T01:37:39;9.50;99.90
66568;DHT22;53422;49.296;6.900;2023-04-25T01:40:06;9.50;99.90
66568;DHT22;53422;49.296;6.900;2023-04-25T01:42:33;9.40;99.90
66568;DHT22;53422;49.296;6.900;2023-04-25T01:44:59;9.40;99.90
66568;DHT22;53422;49.296;6.900;2023-04-25T01:47:25;9.40;99.90
66568;DHT22;53422;49.296;6.900;2023-04-25T01:49:51;9.50;99.90
66568;DHT22;53422;49.296;6.900;2023-04-25T01:52:16;9.50;99.90
66568;DHT22;53422;49.296;6.900;2023-04-25T01:54:42;9.40;99.90
66568;DHT22;53422;49.296;6.900;2023-04-25T01:57:10;9.50;99.90
66568;DHT22;53422;49.296;6.900;2023-04-25T01:59:36;9.50;99.90
66568;DHT22;53422;49.296;6.900;2023-04-25T02:02:02;9.50;99.90
66568;DHT22;53422;49.296;6.900;2023-04-25T02:04:31;9.40;99.90
66568;DHT22;53422;49.296;6.900;2023-04-25T02:06:56;9.40;99.90
66568;DHT22;53422;49.296;6.900;2023-04-25T02:09:22;9.40;99.90
66568;DHT22;53422;49.296;6.900;2023-04-25T02:11:48;9.40;99.90
66568;DHT22;53422;49.296;6.900;2023-04-25T02:14:14;9.40;99.90
66568;DHT22;53422;49.296;6.900;2023-04-25T02:16:40;9.40;99.90
66568;DHT22;53422;49.296;6.900;2023-04-25T02:19:06;9.40;99.90
66568;DHT22;53422;49.296;6.900;2023-04-25T02:21:32;9.40;99.90
66568;DHT22;53422;49.296;6.900;2023-04-25T02:23:58;9.40;99.90
66568;DHT22;53422;49.296;6.900;2023-04-25T02:26:24;9.40;99.90
66568;DHT22;53422;49.296;6.900;2023-04-25T02:28:50;9.40;99.90
66568;DHT22;53422;49.296;6.900;2023-04-25T02:31:16;9.40;99.90
66568;DHT22;53422;49.296;6.900;2023-04-25T02:33:42;9.40;99.90
66568;DHT22;53422;49.296;6.900;2023-04-25T02:36:08;9.40;99.90
66568;DHT22;53422;49.296;6.900;2023-04-25T02:38:34;9.40;99.90
66568;DHT22;53422;49.296;6.900;2023-04-25T02:41:00;9.30;99.90
66568;DHT22;53422;49.296;6.900;2023-04-25T02:43:25;9.40;99.90
66568;DHT22;53422;49.296;6.900;2023-04-25T02:45:51;9.40;99.90
66568;DHT22;53422;49.296;6.900;2023-04-25T02:48:16;9.30;99.90
66568;DHT22;53422;49.296;6.900;2023-04-25T02:50:42;9.30;99.90
66568;DHT22;53422;49.296;6.900;2023-04-25T02:53:08;9.30;99.90
66568;DHT22;53422;49.296;6.900;2023-04-25T02:55:34;9.30;99.90
66568;DHT22;53422;49.296;6.900;2023-04-25T02:57:59;9.30;99.90
66568;DHT22;53422;49.296;6.900;2023-04-25T03:00:25;9.30;99.90
66568;DHT22;53422;49.296;6.900;2023-04-25T03:02:51;9.30;99.90
66568;DHT22;53422;49.296;6.900;2023-04-25T03:05:17;9.30;99.90
66568;DHT22;53422;49.296;6.900;2023-04-25T03:07:43;9.30;99.90
66568;DHT22;53422;49.296;6.900;2023-04-25T03:10:10;9.30;99.90
66568;DHT22;53422;49.296;6.900;2023-04-25T03:12:36;9.30;99.90
66568;DHT22;53422;49.296;6.900;2023-04-25T03:15:02;9.30;99.90
66568;DHT22;53422;49.296;6.900;2023-04-25T03:17:28;9.30;99.90
66568;DHT22;53422;49.296;6.900;2023-04-25T03:19:57;9.30;99.90
66568;DHT22;53422;49.296;6.900;2023-04-25T03:22:23;9.30;99.90
66568;DHT22;53422;49.296;6.900;2023-04-25T03:24:49;9.30;99.90
66568;DHT22;53422;49.296;6.900;2023-04-25T03:27:16;9.30;99.90
66568;DHT22;53422;49.296;6.900;2023-04-25T03:29:41;9.20;99.90
66568;DHT22;53422;49.296;6.900;2023-04-25T03:32:07;9.20;99.90
66568;DHT22;53422;49.296;6.900;2023-04-25T03:34:33;9.20;99.90
66568;DHT22;53422;49.296;6.900;2023-04-25T03:36:59;9.20;99.90
66568;DHT22;53422;49.296;6.900;2023-04-25T03:39:25;9.20;99.90
66568;DHT22;53422;49.296;6.900;2023-04-25T03:41:51;9.20;99.90
66568;DHT22;53422;49.296;6.900;2023-04-25T03:44:16;9.20;99.90
66568;DHT22;53422;49.296;6.900;2023-04-25T03:46:42;9.20;99.90
66568;DHT22;53422;49.296;6.900;2023-04-25T03:49:08;9.20;99.90
66568;DHT22;53422;49.296;6.900;2023-04-25T03:51:33;9.20;99.90
66568;DHT22;53422;49.296;6.900;2023-04-25T03:53:59;9.20;99.90
66568;DHT22;53422;49.296;6.900;2023-04-25T03:56:25;9.20;99.90
66568;DHT22;53422;49.296;6.900;2023-04-25T03:58:50;9.20;99.90
66568;DHT22;53422;49.296;6.900;2023-04-25T04:01:16;9.20;99.90
66568;DHT22;53422;49.296;6.900;2023-04-25T04:03:42;9.20;99.90
66568;DHT22;53422;49.296;6.900;2023-04-25T04:06:08;9.20;99.90
66568;DHT22;53422;49.296;6.900;2023-04-25T04:08:34;9.20;99.90
66568;DHT22;53422;49.296;6.900;2023-04-25T04:11:00;9.20;99.90
66568;DHT22;53422;49.296;6.900;2023-04-25T04:13:27;9.20;99.90
66568;DHT22;53422;49.296;6.900;2023-04-25T04:15:52;9.20;99.90
66568;DHT22;53422;49.296;6.900;2023-04-25T04:18:18;9.20;99.90
66568;DHT22;53422;49.296;6.900;2023-04-25T04:20:44;9.20;99.90
66568;DHT22;53422;49.296;6.900;2023-04-25T04:23:10;9.20;99.90
66568;DHT22;53422;49.296;6.900;2023-04-25T04:25:36;9.20;99.90
66568;DHT22;53422;49.296;6.900;2023-04-25T04:28:02;9.20;99.90
66568;DHT22;53422;49.296;6.900;2023-04-25T04:30:28;9.20;99.90
66568;DHT22;53422;49.296;6.900;2023-04-25T04:32:57;9.20;99.90
66568;DHT22;53422;49.296;6.900;2023-04-25T04:35:23;9.20;99.90
66568;DHT22;53422;49.296;6.900;2023-04-25T04:37:49;9.20;99.90
66568;DHT22;53422;49.296;6.900;2023-04-25T04:40:15;9.20;99.90
66568;DHT22;53422;49.296;6.900;2023-04-25T04:42:42;9.20;99.90
66568;DHT22;53422;49.296;6.900;2023-04-25T04:45:08;9.20;99.90
66568;DHT22;53422;49.296;6.900;2023-04-25T04:47:35;9.20;99.90
66568;DHT22;53422;49.296;6.900;2023-04-25T04:50:03;9.20;99.90
66568;DHT22;53422;49.296;6.900;2023-04-25T04:52:30;9.20;99.90
66568;DHT22;53422;49.296;6.900;2023-04-25T04:54:55;9.20;99.90
66568;DHT22;53422;49.296;6.900;2023-04-25T04:57:21;9.20;99.90
66568;DHT22;53422;49.296;6.900;2023-04-25T04:59:47;9.20;99.90
66568;DHT22;53422;49.296;6.900;2023-04-25T05:02:13;9.20;99.90
66568;DHT22;53422;49.296;6.900;2023-04-25T05:04:38;9.20;99.90
66568;DHT22;53422;49.296;6.900;2023-04-25T05:07:04;9.20;99.90
66568;DHT22;53422;49.296;6.900;2023-04-25T05:09:30;9.20;99.90
66568;DHT22;53422;49.296;6.900;2023-04-25T05:11:55;9.20;99.90
66568;DHT22;53422;49.296;6.900;2023-04-25T05:14:21;9.20;99.90
66568;DHT22;53422;49.296;6.900;2023-04-25T05:16:48;9.20;99.90
66568;DHT22;53422;49.296;6.900;2023-04-25T05:19:13;9.20;99.90
66568;DHT22;53422;49.296;6.900;2023-04-25T05:21:39;9.20;99.90
66568;DHT22;53422;49.296;6.900;2023-04-25T05:24:05;9.20;99.90
66568;DHT22;53422;49.296;6.900;2023-04-25T05:26:31;9.20;99.90
66568;DHT22;53422;49.296;6.900;2023-04-25T05:28:57;9.20;99.90
66568;DHT22;53422;49.296;6.900;2023-04-25T05:31:23;9.20;99.90
66568;DHT22;53422;49.296;6.900;2023-04-25T05:33:49;9.20;99.90
66568;DHT22;53422;49.296;6.900;2023-04-25T05:36:14;9.20;99.90
66568;DHT22;53422;49.296;6.900;2023-04-25T05:38:40;9.20;99.90
66568;DHT22;53422;49.296;6.900;2023-04-25T05:41:06;9.20;99.90
66568;DHT22;53422;49.296;6.900;2023-04-25T05:43:32;9.20;99.90
66568;DHT22;53422;49.296;6.900;2023-04-25T05:45:58;9.20;99.90
66568;DHT22;53422;49.296;6.900;2023-04-25T05:48:24;9.20;99.90
66568;DHT22;53422;49.296;6.900;2023-04-25T05:50:50;9.20;99.90
66568;DHT22;53422;49.296;6.900;2023-04-25T05:53:17;9.20;99.90
66568;DHT22;53422;49.296;6.900;2023-04-25T05:55:42;9.20;99.90
66568;DHT22;53422;49.296;6.900;2023-04-25T05:58:08;9.20;99.90
66568;DHT22;53422;49.296;6.900;2023-04-25T06:00:34;9.20;99.90
66568;DHT22;53422;49.296;6.900;2023-04-25T06:02:59;9.20;99.90
66568;DHT22;53422;49.296;6.900;2023-04-25T06:05:26;9.20;99.90
66568;DHT22;53422;49.296;6.900;2023-04-25T06:07:52;9.20;99.90
66568;DHT22;53422;49.296;6.900;2023-04-25T06:10:17;9.20;99.90
66568;DHT22;53422;49.296;6.900;2023-04-25T06:12:43;9.20;99.90
66568;DHT22;53422;49.296;6.900;2023-04-25T06:15:09;9.20;99.90
66568;DHT22;53422;49.296;6.900;2023-04-25T06:17:35;9.20;99.90
66568;DHT22;53422;49.296;6.900;2023-04-25T06:20:01;9.20;99.90
66568;DHT22;53422;49.296;6.900;2023-04-25T06:22:27;9.20;99.90
66568;DHT22;53422;49.296;6.900;2023-04-25T06:24:53;9.20;99.90
66568;DHT22;53422;49.296;6.900;2023-04-25T06:27:18;9.20;99.90
66568;DHT22;53422;49.296;6.900;2023-04-25T06:29:44;9.20;99.90
66568;DHT22;53422;49.296;6.900;2023-04-25T06:32:09;9.20;99.90
66568;DHT22;53422;49.296;6.900;2023-04-25T06:34:35;9.20;99.90
66568;DHT22;53422;49.296;6.900;2023-04-25T06:37:01;9.20;99.90
66568;DHT22;53422;49.296;6.900;2023-04-25T06:39:26;9.20;99.90
66568;DHT22;53422;49.296;6.900;2023-04-25T06:41:52;9.20;99.90
66568;DHT22;53422;49.296;6.900;2023-04-25T06:44:18;9.30;99.90
66568;DHT22;53422;49.296;6.900;2023-04-25T06:46:44;9.30;99.90
66568;DHT22;53422;49.296;6.900;2023-04-25T06:49:10;9.30;99.90
66568;DHT22;53422;49.296;6.900;2023-04-25T06:51:35;9.30;99.90
66568;DHT22;53422;49.296;6.900;2023-04-25T06:54:01;9.40;99.90
66568;DHT22;53422;49.296;6.900;2023-04-25T06:56:28;9.40;99.90
66568;DHT22;53422;49.296;6.900;2023-04-25T06:58:56;9.40;99.90
66568;DHT22;53422;49.296;6.900;2023-04-25T07:01:22;9.40;99.90
66568;DHT22;53422;49.296;6.900;2023-04-25T07:03:48;9.40;99.90
66568;DHT22;53422;49.296;6.900;2023-04-25T07:06:13;9.40;99.90
66568;DHT22;53422;49.296;6.900;2023-04-25T07:08:39;9.40;99.90
66568;DHT22;53422;49.296;6.900;2023-04-25T07:11:05;9.40;99.90
66568;DHT22;53422;49.296;6.900;2023-04-25T07:13:30;9.40;99.90
66568;DHT22;53422;49.296;6.900;2023-04-25T07:15:56;9.50;99.90
66568;DHT22;53422;49.296;6.900;2023-04-25T07:18:22;9.50;99.90
66568;DHT22;53422;49.296;6.900;2023-04-25T07:20:48;9.50;99.90
66568;DHT22;53422;49.296;6.900;2023-04-25T07:23:13;9.50;99.90
66568;DHT22;53422;49.296;6.900;2023-04-25T07:25:39;9.50;99.90
66568;DHT22;53422;49.296;6.900;2023-04-25T07:28:05;9.50;99.90
66568;DHT22;53422;49.296;6.900;2023-04-25T07:30:31;9.50;99.90
66568;DHT22;53422;49.296;6.900;2023-04-25T07:32:56;9.50;99.90
66568;DHT22;53422;49.296;6.900;2023-04-25T07:35:22;9.60;99.90
66568;DHT22;53422;49.296;6.900;2023-04-25T07:37:48;9.60;99.90
66568;DHT22;53422;49.296;6.900;2023-04-25T07:40:13;9.60;99.90
66568;DHT22;53422;49.296;6.900;2023-04-25T07:42:41;9.60;99.90
66568;DHT22;53422;49.296;6.900;2023-04-25T07:45:07;9.60;99.90
66568;DHT22;53422;49.296;6.900;2023-04-25T07:47:34;9.60;99.90
66568;DHT22;53422;49.296;6.900;2023-04-25T07:50:00;9.70;99.90
66568;DHT22;53422;49.296;6.900;2023-04-25T07:52:26;9.70;99.90
66568;DHT22;53422;49.296;6.900;2023-04-25T07:54:52;9.70;99.90
66568;DHT22;53422;49.296;6.900;2023-04-25T07:57:18;9.70;99.90
66568;DHT22;53422;49.296;6.900;2023-04-25T07:59:44;9.70;99.90
66568;DHT22;53422;49.296;6.900;2023-04-25T08:02:10;9.70;99.90
66568;DHT22;53422;49.296;6.900;2023-04-25T08:04:36;9.80;99.90
66568;DHT22;53422;49.296;6.900;2023-04-25T08:07:01;9.80;99.90
66568;DHT22;53422;49.296;6.900;2023-04-25T08:09:27;9.80;99.90
66568;DHT22;53422;49.296;6.900;2023-04-25T08:11:54;9.80;99.90
66568;DHT22;53422;49.296;6.900;2023-04-25T08:14:20;9.80;99.90
66568;DHT22;53422;49.296;6.900;2023-04-25T08:16:46;9.90;99.90
66568;DHT22;53422;49.296;6.900;2023-04-25T08:19:11;9.90;99.90
66568;DHT22;53422;49.296;6.900;2023-04-25T08:21:37;9.90;99.90
66568;DHT22;53422;49.296;6.900;2023-04-25T08:24:03;9.90;99.90
66568;DHT22;53422;49.296;6.900;2023-04-25T08:26:29;10.00;99.90
66568;DHT22;53422;49.296;6.900;2023-04-25T08:28:55;9.90;99.90
66568;DHT22;53422;49.296;6.900;2023-04-25T08:31:20;10.00;99.90
66568;DHT22;53422;49.296;6.900;2023-04-25T08:33:46;10.00;99.90
66568;DHT22;53422;49.296;6.900;2023-04-25T08:36:12;10.00;99.90
66568;DHT22;53422;49.296;6.900;2023-04-25T08:38:37;10.00;99.90
66568;DHT22;53422;49.296;6.900;2023-04-25T08:41:03;10.00;99.90
66568;DHT22;53422;49.296;6.900;2023-04-25T08:43:30;10.00;99.90
66568;DHT22;53422;49.296;6.900;2023-04-25T08:46:00;10.00;99.90
66568;DHT22;53422;49.296;6.900;2023-04-25T08:48:27;10.00;99.90
66568;DHT22;53422;49.296;6.900;2023-04-25T08:50:55;10.10;99.90
66568;DHT22;53422;49.296;6.900;2023-04-25T08:53:25;10.10;99.90
66568;DHT22;53422;49.296;6.900;2023-04-25T08:55:52;10.10;99.90
66568;DHT22;53422;49.296;6.900;2023-04-25T08:58:19;10.20;99.90
66568;DHT22;53422;49.296;6.900;2023-04-25T09:00:47;10.20;99.90
66568;DHT22;53422;49.296;6.900;2023-04-25T09:03:13;10.20;99.90
66568;DHT22;53422;49.296;6.900;2023-04-25T09:05:42;10.20;99.90
66568;DHT22;53422;49.296;6.900;2023-04-25T09:08:08;10.20;99.90
66568;DHT22;53422;49.296;6.900;2023-04-25T09:10:35;10.20;99.90
66568;DHT22;53422;49.296;6.900;2023-04-25T09:13:27;10.20;99.90
66568;DHT22;53422;49.296;6.900;2023-04-25T09:15:54;10.30;99.90
66568;DHT22;53422;49.296;6.900;2023-04-25T09:18:28;10.30;99.90
66568;DHT22;53422;49.296;6.900;2023-04-25T09:20:55;10.30;99.90
66568;DHT22;53422;49.296;6.900;2023-04-25T09:23:22;10.40;99.90
66568;DHT22;53422;49.296;6.900;2023-04-25T09:25:49;10.40;99.90
66568;DHT22;53422;49.296;6.900;2023-04-25T09:28:15;10.40;99.90
66568;DHT22;53422;49.296;6.900;2023-04-25T09:30:41;10.50;99.90
66568;DHT22;53422;49.296;6.900;2023-04-25T09:33:08;10.60;99.90
66568;DHT22;53422;49.296;6.900;2023-04-25T09:35:38;10.60;99.90
66568;DHT22;53422;49.296;6.900;2023-04-25T09:38:22;10.60;99.90
66568;DHT22;53422;49.296;6.900;2023-04-25T09:40:48;10.70;99.90
66568;DHT22;53422;49.296;6.900;2023-04-25T09:43:22;10.70;99.90
66568;DHT22;53422;49.296;6.900;2023-04-25T09:45:49;10.80;99.90
66568;DHT22;53422;49.296;6.900;2023-04-25T09:48:21;10.70;99.90
66568;DHT22;53422;49.296;6.900;2023-04-25T09:51:10;10.80;99.90
66568;DHT22;53422;49.296;6.900;2023-04-25T09:53:44;10.80;99.90
66568;DHT22;53422;49.296;6.900;2023-04-25T09:56:12;10.80;99.90
66568;DHT22;53422;49.296;6.900;2023-04-25T09:58:40;10.90;99.90
66568;DHT22;53422;49.296;6.900;2023-04-25T10:01:10;11.00;99.90
66568;DHT22;53422;49.296;6.900;2023-04-25T10:03:39;11.10;99.90
66568;DHT22;53422;49.296;6.900;2023-04-25T10:06:20;11.10;99.90
66568;DHT22;53422;49.296;6.900;2023-04-25T10:08:51;11.10;99.90
66568;DHT22;53422;49.296;6.900;2023-04-25T10:11:19;11.10;99.90
66568;DHT22;53422;49.296;6.900;2023-04-25T10:13:45;11.20;99.90
66568;DHT22;53422;49.296;6.900;2023-04-25T10:16:11;11.20;99.90
66568;DHT22;53422;49.296;6.900;2023-04-25T10:18:37;11.20;99.90
66568;DHT22;53422;49.296;6.900;2023-04-25T10:21:04;11.30;99.90
66568;DHT22;53422;49.296;6.900;2023-04-25T10:23:31;11.30;99.90
66568;DHT22;53422;49.296;6.900;2023-04-25T10:25:57;11.40;99.90
66568;DHT22;53422;49.296;6.900;2023-04-25T10:28:23;11.40;99.90
66568;DHT22;53422;49.296;6.900;2023-04-25T10:31:03;11.50;99.90
66568;DHT22;53422;49.296;6.900;2023-04-25T10:33:36;11.50;99.90
66568;DHT22;53422;49.296;6.900;2023-04-25T10:36:20;11.60;99.90
66568;DHT22;53422;49.296;6.900;2023-04-25T10:38:47;11.70;99.90
66568;DHT22;53422;49.296;6.900;2023-04-25T10:41:14;11.70;99.90
66568;DHT22;53422;49.296;6.900;2023-04-25T10:46:23;11.90;99.90
66568;DHT22;53422;49.296;6.900;2023-04-25T10:48:59;12.00;99.90
66568;DHT22;53422;49.296;6.900;2023-04-25T10:51:28;12.00;99.90
66568;DHT22;53422;49.296;6.900;2023-04-25T10:59:09;12.40;99.90
66568;DHT22;53422;49.296;6.900;2023-04-25T11:01:44;12.40;99.90
66568;DHT22;53422;49.296;6.900;2023-04-25T11:04:30;12.50;99.90
66568;DHT22;53422;49.296;6.900;2023-04-25T11:07:05;12.50;99.90
66568;DHT22;53422;49.296;6.900;2023-04-25T11:09:34;12.50;99.90
66568;DHT22;53422;49.296;6.900;2023-04-25T11:12:00;12.60;99.90
66568;DHT22;53422;49.296;6.900;2023-04-25T11:14:26;12.60;99.90
66568;DHT22;53422;49.296;6.900;2023-04-25T11:16:56;12.50;99.90
66568;DHT22;53422;49.296;6.900;2023-04-25T11:19:23;12.50;99.90
66568;DHT22;53422;49.296;6.900;2023-04-25T11:21:49;12.60;99.90
66568;DHT22;53422;49.296;6.900;2023-04-25T11:24:18;12.60;99.90
66568;DHT22;53422;49.296;6.900;2023-04-25T11:26:46;12.60;99.90
66568;DHT22;53422;49.296;6.900;2023-04-25T11:29:13;12.60;99.90
66568;DHT22;53422;49.296;6.900;2023-04-25T11:31:43;12.60;99.90
66568;DHT22;53422;49.296;6.900;2023-04-25T11:34:10;12.60;99.90
66568;DHT22;53422;49.296;6.900;2023-04-25T11:36:38;12.60;99.90
66568;DHT22;53422;49.296;6.900;2023-04-25T11:39:04;12.50;99.90
66568;DHT22;53422;49.296;6.900;2023-04-25T11:41:31;12.50;99.90
66568;DHT22;53422;49.296;6.900;2023-04-25T11:43:57;12.50;99.90
66568;DHT22;53422;49.296;6.900;2023-04-25T11:46:22;12.50;99.90
66568;DHT22;53422;49.296;6.900;2023-04-25T11:48:48;12.40;99.90
66568;DHT22;53422;49.296;6.900;2023-04-25T11:51:15;12.40;99.90
66568;DHT22;53422;49.296;6.900;2023-04-25T11:53:42;12.40;99.90
66568;DHT22;53422;49.296;6.900;2023-04-25T11:56:10;12.40;99.90
66568;DHT22;53422;49.296;6.900;2023-04-25T12:01:31;12.50;99.90
66568;DHT22;53422;49.296;6.900;2023-04-25T12:03:58;12.40;99.90
66568;DHT22;53422;49.296;6.900;2023-04-25T12:06:27;12.50;99.90
66568;DHT22;53422;49.296;6.900;2023-04-25T12:09:08;12.50;99.90
66568;DHT22;53422;49.296;6.900;2023-04-25T12:11:41;12.50;99.90
66568;DHT22;53422;49.296;6.900;2023-04-25T12:14:08;12.60;99.90
66568;DHT22;53422;49.296;6.900;2023-04-25T12:16:44;12.60;99.90
66568;DHT22;53422;49.296;6.900;2023-04-25T12:19:13;12.60;99.90
66568;DHT22;53422;49.296;6.900;2023-04-25T12:21:39;12.50;99.90
66568;DHT22;53422;49.296;6.900;2023-04-25T12:24:12;12.50;99.90
66568;DHT22;53422;49.296;6.900;2023-04-25T12:26:49;12.50;99.90
66568;DHT22;53422;49.296;6.900;2023-04-25T12:29:25;12.30;99.90
66568;DHT22;53422;49.296;6.900;2023-04-25T12:31:52;12.20;99.90
66568;DHT22;53422;49.296;6.900;2023-04-25T12:34:19;12.20;99.90
66568;DHT22;53422;49.296;6.900;2023-04-25T12:36:45;12.30;99.90
66568;DHT22;53422;49.296;6.900;2023-04-25T12:39:18;12.40;99.90
66568;DHT22;53422;49.296;6.900;2023-04-25T12:41:45;12.40;99.90
66568;DHT22;53422;49.296;6.900;2023-04-25T12:44:11;12.50;99.90
66568;DHT22;53422;49.296;6.900;2023-04-25T12:46:37;12.50;99.90
66568;DHT22;53422;49.296;6.900;2023-04-25T12:49:04;12.60;99.90
66568;DHT22;53422;49.296;6.900;2023-04-25T12:51:30;12.60;99.90
66568;DHT22;53422;49.296;6.900;2023-04-25T12:53:58;12.70;99.90
66568;DHT22;53422;49.296;6.900;2023-04-25T12:56:24;12.60;99.90
66568;DHT22;53422;49.296;6.900;2023-04-25T12:58:51;12.60;99.90
66568;DHT22;53422;49.296;6.900;2023-04-25T13:01:16;12.60;99.90
66568;DHT22;53422;49.296;6.900;2023-04-25T13:03:42;12.60;99.90
66568;DHT22;53422;49.296;6.900;2023-04-25T13:06:07;12.60;99.90
66568;DHT22;53422;49.296;6.900;2023-04-25T13:08:33;12.70;99.90
66568;DHT22;53422;49.296;6.900;2023-04-25T13:11:00;12.70;99.90
66568;DHT22;53422;49.296;6.900;2023-04-25T13:13:26;12.70;99.90
66568;DHT22;53422;49.296;6.900;2023-04-25T13:15:52;12.70;99.90
66568;DHT22;53422;49.296;6.900;2023-04-25T13:18:19;12.60;99.90
66568;DHT22;53422;49.296;6.900;2023-04-25T13:20:44;12.60;99.90
66568;DHT22;53422;49.296;6.900;2023-04-25T13:23:11;12.60;99.90
66568;DHT22;53422;49.296;6.900;2023-04-25T13:25:37;12.70;99.90
66568;DHT22;53422;49.296;6.900;2023-04-25T13:28:03;12.60;97.60
66568;DHT22;53422;49.296;6.900;2023-04-25T13:30:28;12.60;98.40
66568;DHT22;53422;49.296;6.900;2023-04-25T13:32:54;12.60;99.70
66568;DHT22;53422;49.296;6.900;2023-04-25T13:35:22;12.60;99.80
66568;DHT22;53422;49.296;6.900;2023-04-25T13:37:48;12.70;99.20
66568;DHT22;53422;49.296;6.900;2023-04-25T13:40:13;12.70;99.90
66568;DHT22;53422;49.296;6.900;2023-04-25T13:42:39;12.60;98.70
66568;DHT22;53422;49.296;6.900;2023-04-25T13:45:06;12.70;99.90
66568;DHT22;53422;49.296;6.900;2023-04-25T13:47:32;12.70;99.20
66568;DHT22;53422;49.296;6.900;2023-04-25T13:49:58;12.70;98.40
66568;DHT22;53422;49.296;6.900;2023-04-25T13:52:24;12.70;94.00
66568;DHT22;53422;49.296;6.900;2023-04-25T13:54:51;12.60;95.00
66568;DHT22;53422;49.296;6.900;2023-04-25T13:57:17;12.60;95.00
66568;DHT22;53422;49.296;6.900;2023-04-25T13:59:43;12.70;95.50
66568;DHT22;53422;49.296;6.900;2023-04-25T14:02:09;12.60;93.40
66568;DHT22;53422;49.296;6.900;2023-04-25T14:04:35;12.60;91.30
66568;DHT22;53422;49.296;6.900;2023-04-25T14:07:01;12.60;92.20
66568;DHT22;53422;49.296;6.900;2023-04-25T14:09:27;12.60;91.60
66568;DHT22;53422;49.296;6.900;2023-04-25T14:11:53;12.40;90.70
66568;DHT22;53422;49.296;6.900;2023-04-25T14:14:20;12.40;85.90
66568;DHT22;53422;49.296;6.900;2023-04-25T14:16:50;12.50;89.90
66568;DHT22;53422;49.296;6.900;2023-04-25T14:19:20;12.50;90.60
66568;DHT22;53422;49.296;6.900;2023-04-25T14:21:46;12.60;92.00
66568;DHT22;53422;49.296;6.900;2023-04-25T14:24:13;12.80;91.00
66568;DHT22;53422;49.296;6.900;2023-04-25T14:26:39;12.70;90.30
66568;DHT22;53422;49.296;6.900;2023-04-25T14:29:06;12.60;86.00
66568;DHT22;53422;49.296;6.900;2023-04-25T14:31:33;12.60;85.00
66568;DHT22;53422;49.296;6.900;2023-04-25T14:33:59;12.70;82.50
66568;DHT22;53422;49.296;6.900;2023-04-25T14:36:25;12.60;83.60
66568;DHT22;53422;49.296;6.900;2023-04-25T14:38:52;12.70;85.80
66568;DHT22;53422;49.296;6.900;2023-04-25T14:41:18;12.80;85.80
66568;DHT22;53422;49.296;6.900;2023-04-25T14:43:43;12.80;86.40
66568;DHT22;53422;49.296;6.900;2023-04-25T14:46:10;12.90;88.10
66568;DHT22;53422;49.296;6.900;2023-04-25T14:48:36;12.80;86.40
66568;DHT22;53422;49.296;6.900;2023-04-25T14:51:02;12.80;90.00
66568;DHT22;53422;49.296;6.900;2023-04-25T14:53:28;12.60;90.10
66568;DHT22;53422;49.296;6.900;2023-04-25T14:55:54;12.60;88.60
66568;DHT22;53422;49.296;6.900;2023-04-25T14:58:20;12.50;84.00
66568;DHT22;53422;49.296;6.900;2023-04-25T15:00:46;12.50;86.60
66568;DHT22;53422;49.296;6.900;2023-04-25T15:03:12;12.60;86.80
66568;DHT22;53422;49.296;6.900;2023-04-25T15:05:42;12.60;87.30
66568;DHT22;53422;49.296;6.900;2023-04-25T15:08:08;12.50;87.70
66568;DHT22;53422;49.296;6.900;2023-04-25T15:10:33;12.50;85.10
66568;DHT22;53422;49.296;6.900;2023-04-25T15:13:00;12.50;80.60
66568;DHT22;53422;49.296;6.900;2023-04-25T15:15:26;12.40;84.90
66568;DHT22;53422;49.296;6.900;2023-04-25T15:17:52;12.50;87.50
66568;DHT22;53422;49.296;6.900;2023-04-25T15:20:20;12.40;80.70
66568;DHT22;53422;49.296;6.900;2023-04-25T15:22:46;12.50;81.10
66568;DHT22;53422;49.296;6.900;2023-04-25T15:25:15;12.30;75.30
66568;DHT22;53422;49.296;6.900;2023-04-25T15:27:44;12.40;76.30
66568;DHT22;53422;49.296;6.900;2023-04-25T15:30:12;12.30;75.50
66568;DHT22;53422;49.296;6.900;2023-04-25T15:32:41;12.30;79.20
66568;DHT22;53422;49.296;6.900;2023-04-25T15:35:07;12.30;80.20
66568;DHT22;53422;49.296;6.900;2023-04-25T15:37:34;12.30;77.60
66568;DHT22;53422;49.296;6.900;2023-04-25T15:40:11;12.40;77.60
66568;DHT22;53422;49.296;6.900;2023-04-25T15:42:42;12.40;79.80
66568;DHT22;53422;49.296;6.900;2023-04-25T15:45:10;12.40;79.00
66568;DHT22;53422;49.296;6.900;2023-04-25T15:47:36;12.40;81.40
66568;DHT22;53422;49.296;6.900;2023-04-25T15:50:04;12.40;77.60